• Join FlightAware (Why Join?)
  • Login
  • US Flag 
10:01AM EDT


 

Airport Tracker/Info


-or-


 

Live Flight TrackerFlight Track Log ✈ ASH3770 ✈ 16-May-2013 ✈ KIAD - KPIT

Flight Track Log - Related Links

Times and Time Zones

All times are in EDT time to prevent confusion due to time zone crossing. See the ASH3770 flight status page for this flight to view local times or setup timezone preferences in your user account.

Time Position Orientation Groundspeed Altitude Reporting Facility
EDT Latitude Longitude Course Direction KTS MPH feet Rate Location/Type
05:09PM 38.9667 -77.4333 334° Northwest 158 182 1,400  Level Potomac TRACON
05:11PM 39.0714 -77.5006 334° Northwest 227 261 5,700 2,580 Climbing Washington Center
05:12PM 39.1522 -77.5267 346° North 254 292 9,300 3,180 Climbing Washington Center
05:13PM 39.2267 -77.5503 346° North 264 304 12,100 2,640 Climbing Washington Center
05:14PM 39.3058 -77.5683 350° North 275 316 14,700 2,040 Climbing Washington Center
05:15PM 39.3889 -77.5842 352° North 285 328 16,200 1,680 Climbing Washington Center
05:16PM 39.4756 -77.6267 339° North 309 356 18,100 1,860 Climbing Washington Center
05:17PM 39.5453 -77.7042 319° Northwest 321 369 20,000 900 Climbing Washington Center
05:18PM 39.6206 -77.7953 317° Northwest 342 394 20,000  Level Washington Center
05:20PM 39.7553 -77.9528 318° Northwest 391 450 20,000  Level Cleveland Center
05:21PM 39.8367 -78.0444 319° Northwest 391 450 20,000  Level Cleveland Center
05:22PM 39.8853 -78.1725 296° West 391 450 20,000  Level Cleveland Center
05:23PM 39.9089 -78.3122 282° West 391 450 20,000  Level Cleveland Center
05:24PM 39.9389 -78.4494 286° West 391 450 20,000 -660 Level Cleveland Center
05:25PM 39.9661 -78.5839 285° West 391 450 18,700 -1,320 Descending Cleveland Center
05:26PM 39.9911 -78.6997 286° West 371 427 17,400 -1,440 Descending Cleveland Center
05:27PM 40.0136 -78.8075 285° West 334 384 15,900 -1,320 Descending Cleveland Center
05:28PM 40.0342 -78.9100 285° West 313 360 14,800 -1,080 Descending Cleveland Center
05:29PM 40.0542 -79.0128 284° West 302 348 13,800 -1,020 Descending Cleveland Center
05:30PM 40.0764 -79.1153 286° West 297 342 12,800 -1,020 Descending Cleveland Center
05:31PM 40.0967 -79.2206 284° West 292 336 11,800 -1,080 Descending Cleveland Center
05:32PM 40.1208 -79.3342 286° West 297 342 10,700 -900 Descending Cleveland Center
05:33PM 40.1428 -79.4397 285° West 297 342 10,000 -360 Descending Cleveland Center
05:34PM 40.1894 -79.5286 305° West 297 342 10,000  Level Cleveland Center
05:35PM 40.2403 -79.6122 309° West 290 334 10,000 -60 Level Cleveland Center
05:36PM 40.2908 -79.6958 308° West 296 341 9,900 -780 Descending Cleveland Center
05:37PM 40.3375 -79.7742 308° West 291 335 8,500 -1,920 Descending Cleveland Center
05:38PM 40.3817 -79.8500 307° West 281 323 6,100 -2,040 Descending Cleveland Center
05:39PM 40.4239 -79.9231 307° West 263 303 4,500 -1,080 Descending Cleveland Center
05:40PM 40.4533 -79.9719 308° West 221 254 4,000 -480 Descending Cleveland Center
05:41PM 40.4744 -80.0236 298° West 188 216 3,600 -600 Descending Cleveland Center
05:42PM 40.4831 -80.0864 280° West 172 198 2,900 -720 Descending Cleveland Center